Time;durP1;ratioP1;P1;durP2;ratioP2;P2;SDS_P1;SDS_P2;PMS_P1;PMS_P2;Temp;Humidity;BMP_temperature;BMP_pressure;BME280_temperature;BME280_humidity;BME280_pressure;Samples;Min_cycle;Max_cycle;Signal;HPM_P1;HPM_P2
2023/11/12 00:01:53;;;;;;;6.20;2.27;;;4.50;99.90;;;;;;5031411;28;1053680;-81
2023/11/12 00:04:19;;;;;;;3.93;2.10;;;4.50;99.90;;;;;;5072313;28;20724;-82
2023/11/12 00:06:45;;;;;;;3.17;1.90;;;4.50;99.90;;;;;;5062131;28;21366;-82
2023/11/12 00:09:11;;;;;;;3.07;1.97;;;4.50;99.90;;;;;;5064506;28;20105;-82
2023/11/12 00:11:38;;;;;;;4.47;2.37;;;4.60;99.90;;;;;;5065710;28;20027;-82
2023/11/12 00:14:04;;;;;;;3.53;2.10;;;4.60;99.90;;;;;;5066638;28;20027;-82
2023/11/12 00:16:30;;;;;;;4.30;2.10;;;4.60;99.90;;;;;;5064685;28;20032;-82
2023/11/12 00:18:56;;;;;;;5.27;2.37;;;4.60;99.90;;;;;;5066502;28;20033;-81
2023/11/12 00:21:23;;;;;;;7.37;2.33;;;4.60;99.90;;;;;;5067588;28;20029;-82
2023/11/12 00:23:48;;;;;;;4.67;3.00;;;4.60;99.90;;;;;;5067428;28;20021;-82
2023/11/12 00:26:14;;;;;;;4.00;2.33;;;4.60;99.90;;;;;;5061712;28;20029;-82
2023/11/12 00:28:44;;;;;;;3.87;2.40;;;4.60;99.90;;;;;;5062996;28;20033;-82
2023/11/12 00:31:10;;;;;;;5.27;2.70;;;4.60;99.90;;;;;;5060598;28;20115;-82
2023/11/12 00:33:35;;;;;;;6.37;3.07;;;4.60;99.90;;;;;;5062746;28;20084;-82
2023/11/12 00:36:01;;;;;;;6.50;2.80;;;4.70;99.90;;;;;;5062389;28;20036;-82
2023/11/12 00:38:27;;;;;;;5.53;2.90;;;4.70;99.90;;;;;;5062252;28;20383;-82
2023/11/12 00:40:55;;;;;;;8.43;2.80;;;4.70;99.90;;;;;;5063594;28;20034;-82
2023/11/12 00:43:27;;;;;;;5.90;3.07;;;4.70;99.90;;;;;;5063512;28;20021;-82
2023/11/12 00:45:59;;;;;;;7.97;3.77;;;4.70;99.90;;;;;;5062724;28;20453;-82
2023/11/12 00:48:26;;;;;;;7.53;3.47;;;4.70;99.90;;;;;;5044986;28;20017;-82
2023/11/12 00:50:51;;;;;;;4.03;2.93;;;4.70;99.90;;;;;;5063881;28;20123;-82
2023/11/12 00:53:17;;;;;;;3.80;2.40;;;4.70;99.90;;;;;;5062021;28;20167;-82
2023/11/12 00:55:42;;;;;;;4.37;2.70;;;4.70;99.90;;;;;;5063157;28;20052;-82
2023/11/12 00:58:08;;;;;;;3.57;2.40;;;4.70;99.90;;;;;;5063681;28;20035;-82
2023/11/12 01:00:34;;;;;;;3.90;2.47;;;4.60;99.90;;;;;;5062774;28;20031;-82
2023/11/12 01:02:59;;;;;;;3.67;2.27;;;4.60;99.90;;;;;;5063116;28;20024;-81
2023/11/12 01:05:25;;;;;;;5.13;2.57;;;4.70;99.90;;;;;;5063172;28;20571;-81
2023/11/12 01:07:50;;;;;;;4.63;2.47;;;4.70;99.90;;;;;;5062666;28;20031;-81
2023/11/12 01:10:16;;;;;;;3.40;2.20;;;4.70;99.90;;;;;;5062799;28;20037;-82
2023/11/12 01:12:41;;;;;;;4.37;2.20;;;4.70;99.90;;;;;;5063094;28;20036;-81
2023/11/12 01:15:07;;;;;;;5.53;2.17;;;4.70;99.90;;;;;;5060864;28;20577;-82
2023/11/12 01:17:33;;;;;;;5.33;2.37;;;4.70;99.90;;;;;;5061168;28;20033;-81
2023/11/12 01:20:00;;;;;;;5.07;2.30;;;4.70;99.90;;;;;;5062950;28;20437;-82
2023/11/12 01:22:26;;;;;;;5.93;2.57;;;4.70;99.90;;;;;;5062994;28;20033;-82
2023/11/12 01:24:51;;;;;;;4.57;2.07;;;4.60;99.90;;;;;;5062314;28;20090;-81
2023/11/12 01:27:17;;;;;;;5.57;3.17;;;4.60;99.90;;;;;;5061753;28;20652;-82
2023/11/12 01:29:43;;;;;;;3.10;2.30;;;4.60;99.90;;;;;;5062628;28;20040;-81
2023/11/12 01:32:09;;;;;;;5.70;2.70;;;4.60;99.90;;;;;;5061694;28;20029;-81
2023/11/12 01:34:35;;;;;;;4.00;2.03;;;4.60;99.90;;;;;;5062740;28;20394;-81
2023/11/12 01:37:00;;;;;;;3.00;2.07;;;4.60;99.90;;;;;;5061146;28;20037;-81
2023/11/12 01:39:27;;;;;;;4.30;2.20;;;4.60;99.90;;;;;;5061111;28;20124;-81
2023/11/12 01:41:52;;;;;;;3.33;2.20;;;4.60;99.90;;;;;;5061289;28;20479;-82
2023/11/12 01:44:18;;;;;;;4.13;2.07;;;4.60;99.90;;;;;;5061307;28;20036;-82
2023/11/12 01:46:44;;;;;;;3.43;2.03;;;4.60;99.90;;;;;;5060261;28;20052;-81
2023/11/12 01:49:09;;;;;;;3.90;2.07;;;4.60;99.90;;;;;;5059903;28;20060;-81
2023/11/12 01:51:36;;;;;;;4.33;2.13;;;4.60;99.90;;;;;;5060024;28;20033;-82
2023/11/12 01:54:02;;;;;;;5.40;2.20;;;4.60;99.90;;;;;;5062605;28;20025;-82
2023/11/12 01:56:28;;;;;;;4.23;2.33;;;4.60;99.90;;;;;;5061808;28;20051;-82
2023/11/12 01:58:56;;;;;;;3.07;2.20;;;4.50;99.90;;;;;;5062942;28;20032;-81
2023/11/12 02:01:22;;;;;;;3.57;2.13;;;4.60;99.90;;;;;;5061703;28;20047;-82
2023/11/12 02:03:51;;;;;;;5.13;2.47;;;4.50;99.90;;;;;;5061073;28;20517;-81
2023/11/12 02:06:16;;;;;;;3.90;1.83;;;4.50;99.90;;;;;;5047937;28;20033;-82
2023/11/12 02:08:43;;;;;;;6.00;2.50;;;4.50;99.90;;;;;;5068755;28;20052;-82
2023/11/12 02:11:11;;;;;;;5.03;2.00;;;4.50;99.90;;;;;;5068992;28;20055;-81
2023/11/12 02:13:37;;;;;;;5.10;1.87;;;4.50;99.90;;;;;;5067183;28;20103;-82
2023/11/12 02:16:03;;;;;;;3.73;1.90;;;4.50;99.90;;;;;;5066941;28;20048;-82
2023/11/12 02:18:29;;;;;;;4.70;1.93;;;4.50;99.90;;;;;;5065092;28;20036;-82
2023/11/12 02:20:54;;;;;;;4.67;1.80;;;4.40;99.90;;;;;;5066323;28;20050;-82
2023/11/12 02:23:20;;;;;;;3.43;1.80;;;4.40;99.90;;;;;;5066352;28;20074;-82
2023/11/12 02:25:46;;;;;;;4.57;1.90;;;4.40;99.90;;;;;;5065080;28;20099;-82
2023/11/12 02:28:14;;;;;;;7.07;1.90;;;4.40;99.90;;;;;;5065564;28;20041;-82
2023/11/12 02:30:41;;;;;;;4.23;1.77;;;4.30;99.90;;;;;;5064651;28;20868;-81
2023/11/12 02:33:07;;;;;;;2.67;1.73;;;4.20;99.90;;;;;;5065164;28;20056;-82
2023/11/12 02:35:35;;;;;;;4.33;1.83;;;4.20;99.90;;;;;;5064129;28;20063;-82
2023/11/12 02:38:01;;;;;;;2.77;1.77;;;4.10;99.90;;;;;;5063327;28;20684;-82
2023/11/12 02:40:26;;;;;;;3.37;1.53;;;4.10;99.90;;;;;;5062890;28;20032;-82
2023/11/12 02:42:52;;;;;;;4.57;2.40;;;4.00;99.90;;;;;;5062319;28;20024;-82
2023/11/12 02:45:18;;;;;;;2.60;1.80;;;3.90;99.90;;;;;;5062620;28;20036;-82
2023/11/12 02:47:44;;;;;;;6.30;2.10;;;3.90;99.90;;;;;;5063898;28;20025;-82
2023/11/12 02:50:16;;;;;;;4.27;1.80;;;3.80;99.90;;;;;;5062387;28;20498;-82
2023/11/12 02:52:41;;;;;;;4.97;1.80;;;3.80;99.90;;;;;;5060059;28;20029;-82
2023/11/12 02:55:07;;;;;;;6.60;2.03;;;3.70;99.90;;;;;;5062094;28;20042;-82
2023/11/12 02:57:32;;;;;;;3.90;1.60;;;3.60;99.90;;;;;;5063553;28;20032;-82
2023/11/12 02:59:58;;;;;;;3.63;1.90;;;3.50;99.90;;;;;;5073777;28;20098;-82
2023/11/12 03:02:23;;;;;;;4.63;2.40;;;3.50;99.90;;;;;;5065522;28;20032;-81
2023/11/12 03:04:50;;;;;;;4.27;1.90;;;3.40;99.90;;;;;;5063863;28;20035;-81
2023/11/12 03:07:18;;;;;;;3.80;1.77;;;3.40;99.90;;;;;;5064134;28;20029;-81
2023/11/12 03:09:43;;;;;;;5.63;2.10;;;3.30;99.90;;;;;;5064367;28;20047;-81
2023/11/12 03:12:10;;;;;;;4.03;2.30;;;3.20;99.90;;;;;;5065390;28;21407;-82
2023/11/12 03:14:36;;;;;;;3.43;1.83;;;3.20;99.90;;;;;;5065931;28;20087;-81
2023/11/12 03:17:01;;;;;;;3.93;2.00;;;3.10;99.90;;;;;;5066772;28;20028;-81
2023/11/12 03:19:28;;;;;;;6.60;2.03;;;3.10;99.90;;;;;;5069653;28;20020;-81
2023/11/12 03:21:55;;;;;;;8.43;1.93;;;3.10;99.90;;;;;;5067056;28;21660;-81
2023/11/12 03:24:21;;;;;;;4.73;2.00;;;3.00;99.90;;;;;;5065706;28;20116;-81
2023/11/12 03:26:50;;;;;;;6.47;2.93;;;3.00;99.90;;;;;;5064389;28;20466;-81
2023/11/12 03:29:16;;;;;;;3.13;2.17;;;3.00;99.90;;;;;;5064610;28;20029;-81
2023/11/12 03:31:41;;;;;;;4.17;2.13;;;2.90;99.90;;;;;;5063132;28;20036;-81
2023/11/12 03:34:07;;;;;;;2.90;1.77;;;2.90;99.90;;;;;;5064668;28;20441;-82
2023/11/12 03:36:32;;;;;;;5.57;1.90;;;2.90;99.90;;;;;;5062979;28;21111;-81
2023/11/12 03:38:58;;;;;;;3.70;1.83;;;2.80;99.90;;;;;;5062042;28;20058;-82
2023/11/12 03:41:24;;;;;;;4.43;1.80;;;2.80;99.90;;;;;;5062547;28;20021;-82
2023/11/12 03:43:49;;;;;;;3.90;1.90;;;2.80;99.90;;;;;;5061561;28;20124;-81
2023/11/12 03:46:15;;;;;;;5.53;2.07;;;2.80;99.90;;;;;;5061961;28;20118;-81
2023/11/12 03:48:41;;;;;;;2.97;1.80;;;2.80;99.90;;;;;;5061436;28;20032;-82
2023/11/12 03:51:07;;;;;;;3.97;2.37;;;2.70;99.90;;;;;;5063687;28;20032;-81
2023/11/12 03:53:32;;;;;;;3.77;1.83;;;2.70;99.90;;;;;;5063449;28;20033;-81
2023/11/12 03:55:58;;;;;;;3.80;2.00;;;2.60;99.90;;;;;;5064717;28;20028;-82
2023/11/12 03:58:24;;;;;;;5.67;1.83;;;2.60;99.90;;;;;;5064818;28;20028;-81
2023/11/12 04:00:50;;;;;;;3.93;1.60;;;2.50;99.90;;;;;;5063023;28;20453;-81
2023/11/12 04:03:17;;;;;;;4.70;1.63;;;2.50;99.90;;;;;;5063315;28;20036;-81
2023/11/12 04:05:42;;;;;;;3.37;1.50;;;2.40;99.90;;;;;;5063457;28;20036;-82
2023/11/12 04:08:08;;;;;;;3.33;1.70;;;2.40;99.90;;;;;;5066060;28;20020;-82
2023/11/12 04:10:34;;;;;;;2.80;1.77;;;2.30;99.90;;;;;;5062621;28;20086;-81
2023/11/12 04:12:59;;;;;;;3.63;1.70;;;2.30;99.90;;;;;;5063069;28;20108;-81
2023/11/12 04:15:25;;;;;;;4.20;1.90;;;2.30;99.90;;;;;;5061583;28;20059;-81
2023/11/12 04:17:51;;;;;;;3.13;1.90;;;2.30;99.90;;;;;;5064312;28;20028;-81
2023/11/12 04:20:16;;;;;;;3.77;1.87;;;2.20;99.90;;;;;;5063789;28;20021;-81
2023/11/12 04:22:42;;;;;;;6.53;2.33;;;2.20;99.90;;;;;;5063833;28;20081;-82
2023/11/12 04:25:08;;;;;;;3.93;1.90;;;2.10;99.90;;;;;;5060534;28;20617;-81
2023/11/12 04:27:37;;;;;;;4.07;2.33;;;2.10;99.90;;;;;;5062561;28;20525;-81
2023/11/12 04:30:04;;;;;;;4.93;2.10;;;2.10;99.90;;;;;;5061929;28;20024;-81
2023/11/12 04:32:29;;;;;;;4.43;2.43;;;2.00;99.90;;;;;;5063344;28;20159;-81
2023/11/12 04:34:55;;;;;;;2.93;2.00;;;2.00;99.90;;;;;;5061634;28;20154;-81
2023/11/12 04:37:20;;;;;;;3.00;2.20;;;2.00;99.90;;;;;;5061382;28;20055;-81
2023/11/12 04:39:46;;;;;;;3.33;2.10;;;1.90;99.90;;;;;;5059794;28;20032;-82
2023/11/12 04:42:11;;;;;;;5.37;2.10;;;1.90;99.90;;;;;;5062573;28;20029;-81
2023/11/12 04:44:37;;;;;;;4.30;1.97;;;1.90;99.90;;;;;;5062417;28;20496;-82
2023/11/12 04:47:02;;;;;;;3.73;2.27;;;1.80;99.90;;;;;;5061544;28;20534;-81
2023/11/12 04:49:28;;;;;;;5.73;2.20;;;1.80;99.90;;;;;;5059969;28;20827;-81
2023/11/12 04:51:53;;;;;;;2.63;1.90;;;1.80;99.90;;;;;;5060223;28;20028;-81
2023/11/12 04:54:19;;;;;;;5.10;2.53;;;1.70;99.90;;;;;;5060315;28;20025;-81
2023/11/12 04:56:46;;;;;;;6.80;1.80;;;1.70;99.90;;;;;;5060814;28;20037;-81
2023/11/12 04:59:12;;;;;;;3.83;1.87;;;1.70;99.90;;;;;;5061570;28;21540;-81
2023/11/12 05:01:38;;;;;;;5.23;2.50;;;1.70;99.90;;;;;;5062392;28;20155;-82
2023/11/12 05:04:05;;;;;;;2.30;1.70;;;1.60;99.90;;;;;;5063263;28;20171;-82
2023/11/12 05:06:31;;;;;;;3.53;2.00;;;1.60;99.90;;;;;;5060865;28;20032;-82
2023/11/12 05:08:56;;;;;;;7.83;2.60;;;1.60;99.90;;;;;;5061226;28;20040;-81
2023/11/12 05:11:22;;;;;;;4.93;1.57;;;1.50;99.90;;;;;;5061249;28;20158;-81
2023/11/12 05:13:47;;;;;;;5.53;1.73;;;1.50;99.90;;;;;;5058801;28;20063;-81
2023/11/12 05:16:13;;;;;;;4.90;1.90;;;1.50;99.90;;;;;;5058505;28;20041;-81
2023/11/12 05:18:39;;;;;;;5.33;2.43;;;1.50;99.90;;;;;;5060677;28;20020;-82
2023/11/12 05:21:06;;;;;;;4.47;2.67;;;1.40;99.90;;;;;;5060564;28;20908;-82
2023/11/12 05:23:32;;;;;;;7.13;2.90;;;1.40;99.90;;;;;;5060449;28;20737;-81
2023/11/12 05:25:59;;;;;;;4.33;2.70;;;1.40;99.90;;;;;;5060073;28;20104;-81
2023/11/12 05:28:26;;;;;;;7.47;2.90;;;1.40;99.90;;;;;;5059503;28;20692;-81
2023/11/12 05:30:52;;;;;;;3.90;2.57;;;1.30;99.90;;;;;;5059625;28;20033;-81
2023/11/12 05:33:18;;;;;;;4.77;2.50;;;1.30;99.90;;;;;;5059676;28;20029;-81
2023/11/12 05:35:44;;;;;;;7.97;2.90;;;1.30;99.90;;;;;;5058257;28;20044;-81
2023/11/12 05:38:10;;;;;;;3.47;2.50;;;1.30;99.90;;;;;;5057675;28;20032;-81
2023/11/12 05:40:35;;;;;;;8.67;2.30;;;1.30;99.90;;;;;;5058772;28;20017;-82
2023/11/12 05:43:01;;;;;;;4.03;2.00;;;1.30;99.90;;;;;;5059136;28;20028;-81
2023/11/12 05:45:27;;;;;;;2.67;1.80;;;1.20;99.90;;;;;;5058181;28;20025;-82
2023/11/12 05:47:52;;;;;;;3.57;1.83;;;1.20;99.90;;;;;;5055932;28;20025;-81
2023/11/12 05:50:18;;;;;;;6.77;2.03;;;1.20;99.90;;;;;;5057611;28;20067;-82
2023/11/12 05:52:43;;;;;;;3.37;2.17;;;1.20;99.90;;;;;;5060590;28;20450;-82
2023/11/12 05:55:10;;;;;;;3.40;2.13;;;1.10;99.90;;;;;;5070316;28;20041;-82
2023/11/12 05:57:36;;;;;;;4.50;2.30;;;1.10;99.90;;;;;;5060435;28;20120;-83
2023/11/12 06:00:06;;;;;;;5.40;2.63;;;1.10;99.90;;;;;;5061807;28;20111;-83
2023/11/12 06:02:32;;;;;;;4.47;2.60;;;1.10;99.90;;;;;;5062048;28;20031;-83
2023/11/12 06:04:57;;;;;;;4.70;2.23;;;1.00;99.90;;;;;;5053648;28;20033;-83
2023/11/12 06:07:23;;;;;;;3.83;2.30;;;1.00;99.90;;;;;;5055663;28;20039;-82
2023/11/12 06:09:49;;;;;;;2.80;2.10;;;1.00;99.90;;;;;;5061227;28;20056;-83
2023/11/12 06:12:15;;;;;;;3.80;2.17;;;0.90;99.90;;;;;;5060733;28;20029;-83
2023/11/12 06:14:41;;;;;;;4.50;2.10;;;0.90;99.90;;;;;;5059002;28;20487;-78
2023/11/12 06:17:06;;;;;;;3.77;3.10;;;0.90;99.90;;;;;;5052341;28;20041;-78
2023/11/12 06:19:32;;;;;;;7.13;3.93;;;0.90;99.90;;;;;;5053946;28;20472;-78
2023/11/12 06:21:57;;;;;;;7.23;4.87;;;0.90;99.90;;;;;;5051891;28;20024;-78
2023/11/12 06:24:23;;;;;;;3.33;2.97;;;0.80;99.90;;;;;;5053860;28;20028;-78
2023/11/12 06:26:48;;;;;;;3.57;2.40;;;0.80;99.90;;;;;;5052673;28;20033;-78
2023/11/12 06:29:14;;;;;;;3.13;2.23;;;0.80;99.90;;;;;;5053158;28;21250;-78
2023/11/12 06:31:40;;;;;;;4.47;2.43;;;0.80;99.90;;;;;;5053752;28;20796;-78
2023/11/12 06:34:05;;;;;;;6.23;3.60;;;0.70;99.90;;;;;;5050188;28;20443;-78
2023/11/12 06:36:31;;;;;;;10.10;4.57;;;0.70;99.90;;;;;;5054564;28;20032;-78
2023/11/12 06:38:56;;;;;;;11.07;5.40;;;0.70;99.90;;;;;;5054368;28;20193;-78
2023/11/12 06:41:22;;;;;;;15.43;7.43;;;0.80;99.90;;;;;;5058156;28;20029;-78
2023/11/12 06:43:47;;;;;;;12.20;6.90;;;0.80;99.90;;;;;;5057094;28;20016;-79
2023/11/12 06:46:13;;;;;;;11.77;7.07;;;0.80;99.90;;;;;;5056141;28;20461;-79
2023/11/12 06:48:39;;;;;;;15.77;8.47;;;0.90;99.90;;;;;;5058035;28;20051;-78
2023/11/12 06:51:05;;;;;;;15.63;8.27;;;0.90;99.90;;;;;;5057496;28;20067;-78
2023/11/12 06:53:30;;;;;;;13.07;6.73;;;0.90;99.90;;;;;;5053907;28;20709;-78
2023/11/12 06:55:56;;;;;;;10.40;5.73;;;1.00;99.90;;;;;;5056547;28;20030;-79
2023/11/12 06:58:24;;;;;;;9.77;4.77;;;1.00;99.90;;;;;;5059943;28;20076;-78
2023/11/12 07:00:50;;;;;;;7.70;4.80;;;1.10;99.90;;;;;;5058684;28;20081;-78
2023/11/12 07:03:16;;;;;;;6.00;3.47;;;1.20;99.90;;;;;;5057592;28;20029;-78
2023/11/12 07:05:42;;;;;;;8.50;4.60;;;1.20;99.90;;;;;;5058603;28;20030;-79
2023/11/12 07:08:08;;;;;;;5.73;2.97;;;1.20;99.90;;;;;;5059388;28;20060;-79
2023/11/12 07:10:34;;;;;;;5.23;3.20;;;1.30;99.90;;;;;;5058851;28;20079;-78
2023/11/12 07:13:00;;;;;;;4.83;2.77;;;1.40;99.90;;;;;;5059273;28;20112;-79
2023/11/12 07:15:26;;;;;;;4.67;2.87;;;1.40;99.90;;;;;;5059287;28;20025;-78
2023/11/12 07:17:52;;;;;;;4.33;2.50;;;1.50;99.90;;;;;;5059024;28;20036;-78
2023/11/12 07:20:18;;;;;;;4.27;2.97;;;1.50;99.90;;;;;;5060711;28;20040;-78
2023/11/12 07:22:46;;;;;;;5.57;3.27;;;1.60;99.90;;;;;;5059557;28;20044;-78
2023/11/12 07:25:12;;;;;;;6.30;3.47;;;1.70;99.90;;;;;;5056629;28;20029;-78
2023/11/12 07:27:38;;;;;;;5.43;3.47;;;1.70;99.90;;;;;;5058099;28;20025;-78
2023/11/12 07:30:05;;;;;;;4.40;3.10;;;1.80;99.90;;;;;;5058385;28;20078;-78
2023/11/12 07:32:30;;;;;;;4.70;3.00;;;1.80;99.90;;;;;;5059106;28;21334;-79
2023/11/12 07:34:57;;;;;;;5.77;3.60;;;1.90;99.90;;;;;;5056985;28;20028;-79
2023/11/12 07:37:22;;;;;;;4.33;3.40;;;1.90;99.90;;;;;;5059112;28;20644;-78
2023/11/12 07:39:49;;;;;;;4.17;3.10;;;1.90;99.90;;;;;;5058814;28;20092;-78
2023/11/12 07:42:15;;;;;;;6.03;3.47;;;1.90;99.90;;;;;;5056679;28;20045;-79
2023/11/12 07:44:40;;;;;;;5.47;3.80;;;2.00;99.90;;;;;;5057304;28;20062;-78
2023/11/12 07:47:06;;;;;;;8.60;4.00;;;2.00;99.90;;;;;;5058327;28;20025;-85
2023/11/12 07:49:32;;;;;;;4.97;2.93;;;2.00;99.90;;;;;;5063595;28;20028;-85
2023/11/12 07:51:57;;;;;;;4.57;2.83;;;2.10;99.90;;;;;;5057878;28;20142;-86
2023/11/12 07:54:23;;;;;;;4.53;2.57;;;2.10;99.90;;;;;;5058181;28;20033;-88
2023/11/12 07:56:49;;;;;;;6.90;2.87;;;2.10;99.90;;;;;;5056062;28;20040;-87
2023/11/12 07:59:15;;;;;;;3.50;2.30;;;2.10;99.90;;;;;;5058393;28;20021;-88
2023/11/12 08:01:41;;;;;;;4.33;2.67;;;2.20;99.90;;;;;;5055024;28;20051;-88
2023/11/12 08:04:12;;;;;;;6.23;3.10;;;2.20;99.90;;;;;;5057818;28;20101;-87
2023/11/12 08:06:38;;;;;;;8.80;4.40;;;2.20;99.90;;;;;;5056234;28;20086;-88
2023/11/12 08:09:04;;;;;;;5.17;3.40;;;2.30;99.90;;;;;;5056892;28;20120;-81
2023/11/12 08:11:29;;;;;;;5.07;2.60;;;2.40;99.90;;;;;;5058642;28;20028;-79
2023/11/12 08:13:55;;;;;;;5.90;2.70;;;2.40;99.90;;;;;;5057407;28;20024;-78
2023/11/12 08:16:21;;;;;;;4.23;2.53;;;2.50;99.90;;;;;;5061216;28;20032;-82
2023/11/12 08:18:46;;;;;;;4.80;2.73;;;2.50;99.90;;;;;;5061789;28;20024;-84
2023/11/12 08:21:13;;;;;;;4.30;2.87;;;2.60;99.90;;;;;;5060341;28;20040;-83
2023/11/12 08:23:38;;;;;;;4.13;2.80;;;2.70;99.90;;;;;;5060782;28;20128;-83
2023/11/12 08:26:04;;;;;;;4.17;2.30;;;2.70;99.90;;;;;;5057264;28;20085;-83
2023/11/12 08:28:32;;;;;;;5.33;4.00;;;2.80;99.90;;;;;;5057597;28;20043;-83
2023/11/12 08:30:57;;;;;;;4.93;3.00;;;2.90;99.90;;;;;;5058083;28;20037;-83
2023/11/12 08:33:23;;;;;;;8.30;5.33;;;2.90;99.90;;;;;;5057582;28;20024;-82
2023/11/12 08:35:48;;;;;;;5.27;3.00;;;2.90;99.90;;;;;;5057506;28;20037;-83
2023/11/12 08:38:14;;;;;;;6.23;2.93;;;3.00;99.90;;;;;;5057380;28;20025;-83
2023/11/12 08:40:42;;;;;;;4.97;3.33;;;3.00;99.90;;;;;;5057140;28;20103;-83
2023/11/12 08:43:10;;;;;;;4.67;3.20;;;3.10;99.90;;;;;;5055971;28;20060;-83
2023/11/12 08:45:35;;;;;;;5.83;3.50;;;3.10;99.90;;;;;;5061489;28;20029;-82
2023/11/12 08:48:01;;;;;;;6.97;2.67;;;3.10;99.90;;;;;;5063941;28;20033;-81
2023/11/12 08:50:27;;;;;;;2.97;1.97;;;3.20;99.90;;;;;;5069958;28;20086;-82
2023/11/12 08:52:52;;;;;;;3.10;2.00;;;3.20;99.90;;;;;;5059435;28;20082;-83
2023/11/12 08:55:19;;;;;;;3.37;2.30;;;3.20;99.90;;;;;;5058524;28;20759;-83
2023/11/12 08:57:44;;;;;;;3.20;2.10;;;3.20;99.90;;;;;;5058458;28;20029;-82
2023/11/12 09:00:11;;;;;;;4.43;2.50;;;3.30;99.90;;;;;;5059132;28;20048;-83
2023/11/12 09:02:37;;;;;;;2.67;1.90;;;3.30;99.90;;;;;;5059897;28;20415;-83
2023/11/12 09:05:04;;;;;;;4.57;2.37;;;3.40;99.90;;;;;;5060244;28;20997;-83
2023/11/12 09:07:30;;;;;;;5.17;1.70;;;3.50;99.90;;;;;;5061783;28;20033;-83
2023/11/12 09:09:56;;;;;;;3.93;2.10;;;3.60;99.90;;;;;;5051982;28;20038;-83
2023/11/12 09:12:21;;;;;;;4.37;3.10;;;3.60;99.90;;;;;;5056243;28;20192;-83
2023/11/12 09:14:47;;;;;;;4.10;2.77;;;3.70;99.90;;;;;;5061428;28;20021;-81
2023/11/12 09:17:13;;;;;;;5.17;2.60;;;3.80;99.90;;;;;;5059737;28;20092;-84
2023/11/12 09:19:38;;;;;;;5.00;3.13;;;3.80;99.90;;;;;;5059978;28;20025;-84
2023/11/12 09:22:04;;;;;;;4.57;3.00;;;4.00;99.90;;;;;;5060699;28;20051;-84
2023/11/12 09:24:30;;;;;;;5.93;2.63;;;4.00;99.90;;;;;;5060733;28;20017;-82
2023/11/12 09:26:55;;;;;;;4.37;3.40;;;4.10;99.90;;;;;;5061128;28;20032;-84
2023/11/12 09:29:21;;;;;;;5.13;2.73;;;4.10;99.90;;;;;;5061453;28;20173;-84
2023/11/12 09:31:48;;;;;;;5.20;4.07;;;4.20;99.90;;;;;;5060101;28;20027;-84
2023/11/12 09:34:13;;;;;;;3.57;2.23;;;4.20;99.90;;;;;;5059031;28;20123;-84
2023/11/12 09:36:39;;;;;;;4.70;2.40;;;4.30;99.90;;;;;;5060482;28;20111;-85
2023/11/12 09:39:06;;;;;;;3.50;1.70;;;4.30;99.90;;;;;;5060557;28;20025;-85
2023/11/12 09:41:32;;;;;;;2.53;1.97;;;4.40;99.90;;;;;;5060269;28;20048;-84
2023/11/12 09:44:03;;;;;;;5.67;2.47;;;4.50;99.90;;;;;;5057763;28;20074;-84
2023/11/12 09:46:30;;;;;;;3.33;2.20;;;4.50;99.90;;;;;;5059860;28;20038;-84
2023/11/12 09:48:57;;;;;;;5.37;3.47;;;4.60;99.90;;;;;;5057243;28;20090;-84
2023/11/12 09:51:23;;;;;;;3.63;2.60;;;4.60;99.90;;;;;;5059946;28;20037;-85
2023/11/12 09:53:52;;;;;;;4.33;2.53;;;4.70;99.90;;;;;;5058080;28;20032;-84
2023/11/12 09:56:22;;;;;;;4.13;2.50;;;4.60;99.90;;;;;;5059230;28;20064;-84
2023/11/12 09:58:48;;;;;;;4.17;2.63;;;4.60;99.90;;;;;;5059162;28;20028;-84
2023/11/12 10:01:13;;;;;;;4.03;2.40;;;4.60;99.90;;;;;;5058601;28;20063;-84
2023/11/12 10:03:41;;;;;;;4.30;2.40;;;4.70;99.90;;;;;;5060694;28;20502;-84
2023/11/12 10:06:09;;;;;;;5.10;2.70;;;4.70;99.90;;;;;;5062746;28;20035;-86
2023/11/12 10:08:37;;;;;;;4.67;2.57;;;4.80;99.90;;;;;;5056895;28;20032;-84
2023/11/12 10:11:19;;;;;;;4.80;3.20;;;4.80;99.90;;;;;;5056411;28;20407;-85
2023/11/12 10:13:45;;;;;;;7.37;2.57;;;4.90;99.90;;;;;;5060421;28;20042;-85
2023/11/12 10:16:31;;;;;;;4.03;2.73;;;4.90;99.90;;;;;;5060108;28;20115;-84
2023/11/12 10:19:12;;;;;;;5.67;2.80;;;4.90;99.90;;;;;;5062571;28;20031;-85
2023/11/12 10:21:55;;;;;;;3.73;2.50;;;5.00;99.90;;;;;;5059598;28;20104;-84
2023/11/12 10:24:21;;;;;;;5.57;2.97;;;5.00;99.90;;;;;;5061726;28;20028;-85
2023/11/12 10:26:47;;;;;;;3.00;2.33;;;5.00;99.90;;;;;;5060227;28;20456;-86
2023/11/12 10:29:20;;;;;;;4.97;2.63;;;4.90;99.90;;;;;;5062615;28;20223;-84
2023/11/12 10:31:46;;;;;;;4.83;2.70;;;4.90;99.90;;;;;;5060999;28;20038;-83
2023/11/12 10:34:14;;;;;;;4.10;2.37;;;5.00;99.90;;;;;;5058468;28;20033;-84
2023/11/12 10:36:39;;;;;;;3.27;2.20;;;5.00;99.90;;;;;;5058001;28;20784;-84
2023/11/12 10:39:09;;;;;;;3.97;2.30;;;5.00;99.90;;;;;;5057923;28;20044;-84
2023/11/12 10:41:35;;;;;;;2.67;2.10;;;5.10;99.90;;;;;;5059956;28;20027;-85
2023/11/12 10:44:03;;;;;;;4.63;2.60;;;5.20;99.90;;;;;;5060239;28;20456;-84
2023/11/12 10:46:29;;;;;;;5.13;2.27;;;5.20;99.90;;;;;;5059308;28;20033;-84
2023/11/12 10:48:55;;;;;;;4.70;2.47;;;5.30;99.90;;;;;;5060009;28;20040;-85
2023/11/12 10:51:25;;;;;;;3.83;2.40;;;5.30;99.90;;;;;;5059162;28;20025;-85
2023/11/12 10:53:56;;;;;;;3.97;2.90;;;5.40;99.90;;;;;;5059564;28;20033;-84
2023/11/12 10:56:22;;;;;;;3.50;2.63;;;5.50;99.90;;;;;;5058884;28;20305;-84
2023/11/12 10:58:51;;;;;;;5.40;2.93;;;5.50;99.90;;;;;;5040552;28;20032;-84
2023/11/12 11:01:18;;;;;;;5.40;2.90;;;5.50;99.90;;;;;;5059603;28;20036;-85
2023/11/12 11:03:45;;;;;;;4.13;2.90;;;5.60;99.90;;;;;;5062273;28;20578;-84
2023/11/12 11:06:13;;;;;;;3.60;2.67;;;5.70;99.90;;;;;;5060423;28;20794;-84
2023/11/12 11:08:38;;;;;;;5.17;2.60;;;5.80;99.90;;;;;;5061195;28;20033;-84
2023/11/12 11:11:06;;;;;;;3.67;2.57;;;5.90;99.90;;;;;;5058609;28;20078;-84
2023/11/12 11:13:32;;;;;;;6.00;2.70;;;5.90;99.90;;;;;;5058480;28;20028;-84
2023/11/12 11:16:00;;;;;;;4.33;2.80;;;6.00;99.90;;;;;;5057492;28;20059;-84
2023/11/12 11:18:35;;;;;;;4.23;2.80;;;6.10;99.90;;;;;;5059255;28;20024;-84
2023/11/12 11:21:04;;;;;;;3.88;2.70;;;6.10;99.90;;;;;;5058790;28;20032;-84
2023/11/12 11:23:52;;;;;;;4.47;2.10;;;6.20;99.90;;;;;;5056661;28;20660;-84
2023/11/12 11:26:24;;;;;;;5.60;2.70;;;6.30;99.90;;;;;;5059019;28;20082;-85
2023/11/12 11:29:09;;;;;;;5.93;2.30;;;6.30;99.90;;;;;;5059490;28;20032;-84
2023/11/12 11:31:47;;;;;;;;;;;6.30;99.90;;;;;;5058365;28;20020;-84
2023/11/12 11:34:13;;;;;;;3.43;1.93;;;6.40;99.90;;;;;;5057647;28;19916;-84
2023/11/12 11:36:42;;;;;;;3.20;1.83;;;6.40;99.90;;;;;;5039857;28;20727;-84
2023/11/12 11:39:11;;;;;;;2.73;2.00;;;6.40;99.90;;;;;;5058158;28;20891;-85
2023/11/12 11:41:45;;;;;;;2.80;1.90;;;6.40;99.90;;;;;;5060861;28;20518;-84
2023/11/12 11:44:42;;;;;;;2.72;1.98;;;6.50;99.90;;;;;;5067273;28;20112;-84
2023/11/12 11:47:09;;;;;;;3.27;1.90;;;6.40;99.90;;;;;;5071355;28;20020;-84
2023/11/12 11:49:35;;;;;;;3.37;1.57;;;6.40;99.90;;;;;;5072434;28;20060;-84
2023/11/12 11:52:01;;;;;;;2.70;1.93;;;6.50;99.90;;;;;;5058270;28;20071;-84
2023/11/12 11:54:28;;;;;;;2.53;1.77;;;6.50;99.90;;;;;;5059627;28;20074;-84
2023/11/12 11:56:57;;;;;;;3.87;1.50;;;6.50;99.90;;;;;;5061602;28;20037;-84
2023/11/12 11:59:24;;;;;;;3.77;1.87;;;6.60;99.90;;;;;;5059601;28;20120;-84
2023/11/12 12:01:53;;;;;;;10.53;6.90;;;6.70;99.90;;;;;;5060584;28;20872;-84
2023/11/12 12:04:19;;;;;;;5.67;3.30;;;6.80;99.90;;;;;;5060062;28;20095;-83
2023/11/12 12:06:46;;;;;;;2.80;1.50;;;6.90;99.90;;;;;;5061665;28;20475;-85
2023/11/12 12:09:19;;;;;;;3.27;1.70;;;7.00;99.90;;;;;;5058967;28;20036;-84
2023/11/12 12:11:53;;;;;;;4.20;1.97;;;7.10;99.90;;;;;;5060282;28;20045;-83
2023/11/12 12:14:21;;;;;;;3.77;1.90;;;7.20;99.90;;;;;;5058798;28;20024;-85
2023/11/12 12:16:47;;;;;;;4.13;2.47;;;7.20;99.90;;;;;;5058818;28;20033;-84
2023/11/12 12:19:23;;;;;;;10.17;5.53;;;7.30;99.90;;;;;;5059680;28;20036;-84
2023/11/12 12:21:52;;;;;;;4.93;2.57;;;7.40;99.90;;;;;;5058406;28;20106;-83
2023/11/12 12:24:24;;;;;;;2.90;1.63;;;7.50;99.90;;;;;;5060726;28;20025;-82
2023/11/12 12:26:50;;;;;;;2.90;1.70;;;7.50;99.90;;;;;;5061092;28;20036;-81
2023/11/12 12:29:23;;;;;;;2.40;1.70;;;7.70;99.90;;;;;;5057962;28;20032;-83
2023/11/12 12:31:50;;;;;;;1.93;1.50;;;7.80;99.90;;;;;;5060453;28;20036;-83
2023/11/12 12:34:17;;;;;;;2.20;1.43;;;7.80;99.90;;;;;;5062988;28;20029;-78
2023/11/12 12:37:18;;;;;;;3.43;1.50;;;7.80;99.90;;;;;;5054455;28;20032;-77
2023/11/12 12:39:52;;;;;;;2.57;1.73;;;7.80;99.90;;;;;;5042443;28;20047;-78
2023/11/12 12:42:23;;;;;;;2.10;1.60;;;7.80;99.90;;;;;;5054504;28;20038;-78
2023/11/12 12:44:51;;;;;;;2.70;1.33;;;7.70;99.90;;;;;;5054914;28;20576;-78
2023/11/12 12:47:37;;;;;;;2.37;1.50;;;7.70;99.90;;;;;;5057293;28;20539;-78
2023/11/12 12:50:32;;;;;;;;;;;7.70;99.90;;;;;;5056850;28;20097;-78
2023/11/12 12:53:14;;;;;;;1.73;1.27;;;7.70;99.90;;;;;;5055577;28;19993;-78
2023/11/12 12:55:43;;;;;;;3.03;1.70;;;7.70;99.90;;;;;;5053102;28;20099;-79
2023/11/12 12:58:09;;;;;;;3.13;1.67;;;7.70;99.90;;;;;;5056282;28;20029;-78